Jean Anne — WDC3786 — position and weather

sailwx.info

Track history (hours):
 
Tides and Currents Weather Stations Pressure Air Temp Water Temp Dewpoint Dewpoint Depression Visibility Wind Speed Wind Dir Waves Ship Positions

Jean Anne

Owner: PASHA HAWAII TRANSPORT LINES LLC, National City, CA. More information available from US FCC via Universal Licensing System and Coast Guard Vessel Documentation Center.

Last reported at 2017-Aug-24 08:30 UTC. Time now 2017-Aug-24 08:39 UTC.
Position N 32°24' W 117°26'.

Type: Cargo ship. MMSI: 367003380.

Date/timePositionNaut miles runAvg speedWind from/ knotsBaromVisibWave heightAir tempDewpointWater temp
2017-Aug-24 08:30N 32°24' W 117°26'815.6
2017-Aug-24 08:00N 32°30' W 117°20'816.5
2017-Aug-24 07:30N 32°37' W 117°15'611.7
2017-Aug-24 07:00N 32°42' W 117°14'5 9.8
2017-Aug-24 06:30N 32°41' W 117°08'2 1.9
2017-Aug-24 05:41N 32°39' W 117°07'0 0.0
2017-Aug-24 05:30N 32°39' W 117°07'0 0.0
2017-Aug-24 04:51N 32°39' W 117°07'0 0.0
2017-Aug-23 12:08N 32°39' W 117°07'0 0.0
2017-Aug-23 11:56N 32°39' W 117°07'0 0.0
2017-Aug-23 11:26N 32°39' W 117°07'0 0.0
2017-Aug-22 18:56N 32°39' W 117°07'0 0.0
2017-Aug-22 18:25N 32°39' W 117°07'2 4.6
2017-Aug-22 18:00N 32°41' W 117°08'5 9.3
2017-Aug-22 17:30N 32°42' W 117°14'510.6
2017-Aug-22 17:00N 32°37' W 117°14'510.6
2017-Aug-22 16:30N 32°33' W 117°18'611.7
2017-Aug-22 16:00N 32°28' W 117°22'815.5
2017-Aug-22 15:30N 32°22' W 117°28'815.6
2017-Aug-22 15:00N 32°16' W 117°33'815.9
2017-Aug-22 14:30N 32°09' W 117°39'816.4
2017-Aug-22 14:00N 32°02' W 117°44'816.4
2017-Aug-22 13:31N 31°56' W 117°50'1019.4
2017-Aug-22 13:00N 31°48' W 117°57'1020.2
2017-Aug-22 12:30N 31°40' W 118°04'1020.0
2017-Aug-22 12:00N 31°32' W 118°11'1019.9
2017-Aug-22 11:31N 31°24' W 118°17'1019.9
2017-Aug-22 11:00N 31°16' W 118°24'1019.7
2017-Aug-22 10:30N 31°08' W 118°31'918.6
2017-Aug-22 10:00N 31°02' W 118°40'10720.1
2017-Aug-22 04:42N 30°40' W 120°42'33219.9
2017-Aug-21 12:00N 29°42' W 127°00'46219.2 340 / 151016.810.8 18.312.4
2017-Aug-20 12:00N 28°06' W 135°36'46119.2 070 / 201020.910.8 20.014.9
2017-Aug-19 12:00N 26°00' W 143°54'47619.8 120 / 161017.510.8 22.321.5
2017-Aug-18 12:00N 23°18' W 152°06'   080 / 151016.110.8 23.920.6
2017-Aug-14 12:00N 22°24' W 154°30'   100 / 171018.810.8 23.018.1
Track history (hours):
 
Tides and Currents Weather Stations Pressure Air Temp Water Temp Dewpoint Dewpoint Depression Visibility Wind Speed Wind Dir Waves Ship Positions

Jean Anne

Owner: PASHA HAWAII TRANSPORT LINES LLC, National City, CA. More information available from US FCC via Universal Licensing System and Coast Guard Vessel Documentation Center.

Last reported at 2017-Aug-24 08:30 UTC. Time now 2017-Aug-24 08:39 UTC.
Position N 32°24' W 117°26'.

Type: Cargo ship. MMSI: 367003380.

Date/timePositionNaut miles runAvg speedWind from/ knotsBaromVisibWave heightAir tempDewpointWater temp
2017-Aug-24 08:30N 32°24' W 117°26'815.6
2017-Aug-24 08:00N 32°30' W 117°20'816.5
2017-Aug-24 07:30N 32°37' W 117°15'611.7
2017-Aug-24 07:00N 32°42' W 117°14'5 9.8
2017-Aug-24 06:30N 32°41' W 117°08'2 1.9
2017-Aug-24 05:41N 32°39' W 117°07'0 0.0
2017-Aug-24 05:30N 32°39' W 117°07'0 0.0
2017-Aug-24 04:51N 32°39' W 117°07'0 0.0
2017-Aug-23 12:08N 32°39' W 117°07'0 0.0
2017-Aug-23 11:56N 32°39' W 117°07'0 0.0
2017-Aug-23 11:26N 32°39' W 117°07'0 0.0
2017-Aug-22 18:56N 32°39' W 117°07'0 0.0
2017-Aug-22 18:25N 32°39' W 117°07'2 4.6
2017-Aug-22 18:00N 32°41' W 117°08'5 9.3
2017-Aug-22 17:30N 32°42' W 117°14'510.6
2017-Aug-22 17:00N 32°37' W 117°14'510.6
2017-Aug-22 16:30N 32°33' W 117°18'611.7
2017-Aug-22 16:00N 32°28' W 117°22'815.5
2017-Aug-22 15:30N 32°22' W 117°28'815.6
2017-Aug-22 15:00N 32°16' W 117°33'815.9
2017-Aug-22 14:30N 32°09' W 117°39'816.4
2017-Aug-22 14:00N 32°02' W 117°44'816.4
2017-Aug-22 13:31N 31°56' W 117°50'1019.4
2017-Aug-22 13:00N 31°48' W 117°57'1020.2
2017-Aug-22 12:30N 31°40' W 118°04'1020.0
2017-Aug-22 12:00N 31°32' W 118°11'1019.9
2017-Aug-22 11:31N 31°24' W 118°17'1019.9
2017-Aug-22 11:00N 31°16' W 118°24'1019.7
2017-Aug-22 10:30N 31°08' W 118°31'918.6
2017-Aug-22 10:00N 31°02' W 118°40'10720.1
2017-Aug-22 04:42N 30°40' W 120°42'33219.9
2017-Aug-21 12:00N 29°42' W 127°00'46219.2 340 / 151016.810.8 18.312.4
2017-Aug-20 12:00N 28°06' W 135°36'46119.2 070 / 201020.910.8 20.014.9
2017-Aug-19 12:00N 26°00' W 143°54'47619.8 120 / 161017.510.8 22.321.5
2017-Aug-18 12:00N 23°18' W 152°06'   080 / 151016.110.8 23.920.6
2017-Aug-14 12:00N 22°24' W 154°30'   100 / 171018.810.8 23.018.1

Dump ship's entire track history